Station Historical Data
Daily Summary for July 12, 2012 Units:  Both    English   Metric
« Previous Day
Next Day »
Daily Weekly Monthly Yearly Custom
  High: Low: Average:
Temperature: 73.9 °F /  23.3 °C 68.8 °F /  20.4 °C 70.7 °F /  21.5 °C
Dew Point: 71.1 °F /  21.7 °C 66.4 °F /  19.1 °C 68.2 °F /  20.1 °C
Humidity: 92% 90% 92%
Wind Speed: 11.0mph /  17.7km/h - 3.5mph /  5.6km/h
Wind Gust: 11.0mph /  17.7km/h - -
Wind- - ESE
Pressure: 30.01 in /  1016.1 hPa 29.94 in /  1013.8 hPa -
Precipitation: 1.14 in /  28.96 mm    
Historical Graphs
 
 
Tabular Data for July 12, 2012
Time Temperature Dew Point Pressure Wind Wind Speed Wind Gust Humidity Rainfall Rate (Hourly) Conditions
00:00 70.6 °F /  21.4 °C 68.2 °F /  20.1 °C 29.97in /  1014.8hPa SE 5.0mph /  8km/h 6.0mph /  9.7km/h 92% 0.00in /  0mm
00:05 70.6 °F /  21.4 °C 68.2 °F /  20.1 °C 29.97in /  1014.8hPa SE 5.0mph /  8km/h 8.0mph /  12.9km/h 92% 0.00in /  0mm
00:10 70.6 °F /  21.4 °C 68.2 °F /  20.1 °C 29.97in /  1014.8hPa ESE 3.0mph /  4.8km/h 6.0mph /  9.7km/h 92% 0.00in /  0mm
00:15 70.5 °F /  21.4 °C 68.1 °F /  20.1 °C 29.97in /  1014.8hPa SE 5.0mph /  8km/h 8.0mph /  12.9km/h 92% 0.00in /  0mm
00:20 70.5 °F /  21.4 °C 68.1 °F /  20.1 °C 29.97in /  1014.8hPa SE 5.0mph /  8km/h 6.0mph /  9.7km/h 92% 0.00in /  0mm
00:25 70.5 °F /  21.4 °C 68.1 °F /  20.1 °C 29.97in /  1014.8hPa SE 5.0mph /  8km/h 5.0mph /  8km/h 92% 0.00in /  0mm
00:30 70.5 °F /  21.4 °C 68.1 °F /  20.1 °C 29.97in /  1014.8hPa ESE 5.0mph /  8km/h 5.0mph /  8km/h 92% 0.00in /  0mm
00:35 70.5 °F /  21.4 °C 68.1 °F /  20.1 °C 29.97in /  1014.8hPa ESE 4.0mph /  6.4km/h 6.0mph /  9.7km/h 92% 0.00in /  0mm
00:40 70.5 °F /  21.4 °C 68.1 °F /  20.1 °C 29.97in /  1014.8hPa ESE 7.0mph /  11.3km/h 7.0mph /  11.3km/h 92% 0.00in /  0mm
00:45 70.4 °F /  21.3 °C 68.0 °F /  20 °C 29.97in /  1014.8hPa SE 5.0mph /  8km/h 7.0mph /  11.3km/h 92% 0.00in /  0mm
00:51 70.4 °F /  21.3 °C 68.0 °F /  20 °C 29.97in /  1014.8hPa SE 4.0mph /  6.4km/h 5.0mph /  8km/h 92% 0.00in /  0mm
00:56 70.4 °F /  21.3 °C 68.0 °F /  20 °C 29.97in /  1014.8hPa ESE 5.0mph /  8km/h 6.0mph /  9.7km/h 92% 0.00in /  0mm
01:01 70.3 °F /  21.3 °C 67.9 °F /  19.9 °C 29.97in /  1014.8hPa ESE 4.0mph /  6.4km/h 5.0mph /  8km/h 92% 0.00in /  0mm
01:06 70.3 °F /  21.3 °C 67.9 °F /  19.9 °C 29.97in /  1014.8hPa ESE 3.0mph /  4.8km/h 5.0mph /  8km/h 92% 0.00in /  0mm
01:11 70.3 °F /  21.3 °C 67.9 °F /  19.9 °C 29.97in /  1014.8hPa SE 2.0mph /  3.2km/h 6.0mph /  9.7km/h 92% 0.00in /  0mm
01:16 70.3 °F /  21.3 °C 67.9 °F /  19.9 °C 29.97in /  1014.8hPa ESE 3.0mph /  4.8km/h 4.0mph /  6.4km/h 92% 0.00in /  0mm
01:21 70.2 °F /  21.2 °C 67.8 °F /  19.9 °C 29.97in /  1014.8hPa SE 4.0mph /  6.4km/h 5.0mph /  8km/h 92% 0.00in /  0mm
01:26 70.2 °F /  21.2 °C 67.8 °F /  19.9 °C 29.97in /  1014.8hPa East 3.0mph /  4.8km/h 4.0mph /  6.4km/h 92% 0.00in /  0mm
01:31 70.2 °F /  21.2 °C 67.8 °F /  19.9 °C 29.97in /  1014.8hPa ESE 4.0mph /  6.4km/h 5.0mph /  8km/h 92% 0.00in /  0mm
01:36 70.2 °F /  21.2 °C 67.8 °F /  19.9 °C 29.96in /  1014.4hPa ESE 4.0mph /  6.4km/h 5.0mph /  8km/h 92% 0.00in /  0mm
01:41 70.1 °F /  21.2 °C 67.7 °F /  19.8 °C 29.96in /  1014.4hPa ESE 2.0mph /  3.2km/h 5.0mph /  8km/h 92% 0.00in /  0mm
01:46 70.1 °F /  21.2 °C 67.7 °F /  19.8 °C 29.96in /  1014.4hPa ESE 3.0mph /  4.8km/h 4.0mph /  6.4km/h 92% 0.00in /  0mm
01:51 70.0 °F /  21.1 °C 67.6 °F /  19.8 °C 29.96in /  1014.4hPa SE 4.0mph /  6.4km/h 5.0mph /  8km/h 92% 0.00in /  0mm
01:56 70.0 °F /  21.1 °C 67.6 °F /  19.8 °C 29.96in /  1014.4hPa SE 5.0mph /  8km/h 5.0mph /  8km/h 92% 0.00in /  0mm
02:01 69.9 °F /  21.1 °C 67.5 °F /  19.7 °C 29.95in /  1014.1hPa ESE 3.0mph /  4.8km/h 6.0mph /  9.7km/h 92% 0.00in /  0mm
02:06 69.9 °F /  21.1 °C 67.5 °F /  19.7 °C 29.95in /  1014.1hPa SE 5.0mph /  8km/h 5.0mph /  8km/h 92% 0.00in /  0mm
02:11 69.9 °F /  21.1 °C 67.5 °F /  19.7 °C 29.95in /  1014.1hPa SSE 3.0mph /  4.8km/h 6.0mph /  9.7km/h 92% 0.00in /  0mm
02:16 69.9 °F /  21.1 °C 67.5 °F /  19.7 °C 29.95in /  1014.1hPa ESE 5.0mph /  8km/h 7.0mph /  11.3km/h 92% 0.00in /  0mm
02:21 69.8 °F /  21 °C 67.4 °F /  19.7 °C 29.95in /  1014.1hPa ESE 5.0mph /  8km/h 7.0mph /  11.3km/h 92% 0.00in /  0mm
02:26 69.8 °F /  21 °C 67.4 °F /  19.7 °C 29.95in /  1014.1hPa East 4.0mph /  6.4km/h 7.0mph /  11.3km/h 92% 0.00in /  0mm
02:31 69.8 °F /  21 °C 67.4 °F /  19.7 °C 29.95in /  1014.1hPa ESE 3.0mph /  4.8km/h 4.0mph /  6.4km/h 92% 0.00in /  0mm
02:36 69.8 °F /  21 °C 67.4 °F /  19.7 °C 29.95in /  1014.1hPa East 2.0mph /  3.2km/h 4.0mph /  6.4km/h 92% 0.00in /  0mm
02:41 69.8 °F /  21 °C 67.4 °F /  19.7 °C 29.95in /  1014.1hPa ESE 3.0mph /  4.8km/h 5.0mph /  8km/h 92% 0.00in /  0mm
02:46 69.8 °F /  21 °C 67.4 °F /  19.7 °C 29.95in /  1014.1hPa East 2.0mph /  3.2km/h 4.0mph /  6.4km/h 92% 0.00in /  0mm
02:51 69.8 °F /  21 °C 67.4 °F /  19.7 °C 29.95in /  1014.1hPa East 4.0mph /  6.4km/h 8.0mph /  12.9km/h 92% 0.00in /  0mm
02:56 69.7 °F /  20.9 °C 67.3 °F /  19.6 °C 29.95in /  1014.1hPa ESE 5.0mph /  8km/h 6.0mph /  9.7km/h 92% 0.00in /  0mm
03:01 69.7 °F /  20.9 °C 67.3 °F /  19.6 °C 29.95in /  1014.1hPa ESE 3.0mph /  4.8km/h 6.0mph /  9.7km/h 92% 0.00in /  0mm
03:06 69.7 °F /  20.9 °C 67.3 °F /  19.6 °C 29.95in /  1014.1hPa ESE 4.0mph /  6.4km/h 5.0mph /  8km/h 92% 0.00in /  0mm
03:11 69.7 °F /  20.9 °C 67.3 °F /  19.6 °C 29.95in /  1014.1hPa SE 3.0mph /  4.8km/h 6.0mph /  9.7km/h 92% 0.00in /  0mm
03:16 69.6 °F /  20.9 °C 67.2 °F /  19.6 °C 29.95in /  1014.1hPa ESE 3.0mph /  4.8km/h 8.0mph /  12.9km/h 92% 0.00in /  0mm
03:21 69.6 °F /  20.9 °C 67.2 °F /  19.6 °C 29.95in /  1014.1hPa ESE 8.0mph /  12.9km/h 9.0mph /  14.5km/h 92% 0.00in /  0mm
03:26 69.6 °F /  20.9 °C 67.2 °F /  19.6 °C 29.95in /  1014.1hPa ESE 6.0mph /  9.7km/h 8.0mph /  12.9km/h 92% 0.00in /  0mm
03:31 69.6 °F /  20.9 °C 67.2 °F /  19.6 °C 29.95in /  1014.1hPa SE 6.0mph /  9.7km/h 9.0mph /  14.5km/h 92% 0.00in /  0mm
03:36 69.5 °F /  20.8 °C 67.1 °F /  19.5 °C 29.95in /  1014.1hPa SE 5.0mph /  8km/h 8.0mph /  12.9km/h 92% 0.00in /  0mm
03:41 69.5 °F /  20.8 °C 67.1 °F /  19.5 °C 29.95in /  1014.1hPa ESE 5.0mph /  8km/h 6.0mph /  9.7km/h 92% 0.00in /  0mm
03:46 69.5 °F /  20.8 °C 67.1 °F /  19.5 °C 29.95in /  1014.1hPa ESE 5.0mph /  8km/h 9.0mph /  14.5km/h 92% 0.00in /  0mm
03:51 69.5 °F /  20.8 °C 67.1 °F /  19.5 °C 29.95in /  1014.1hPa ESE 6.0mph /  9.7km/h 8.0mph /  12.9km/h 92% 0.00in /  0mm
03:56 69.5 °F /  20.8 °C 67.1 °F /  19.5 °C 29.95in /  1014.1hPa SE 8.0mph /  12.9km/h 9.0mph /  14.5km/h 92% 0.00in /  0mm
04:01 69.4 °F /  20.8 °C 67.0 °F /  19.4 °C 29.95in /  1014.1hPa ESE 5.0mph /  8km/h 8.0mph /  12.9km/h 92% 0.00in /  0mm
04:06 69.4 °F /  20.8 °C 67.0 °F /  19.4 °C 29.95in /  1014.1hPa SE 3.0mph /  4.8km/h 7.0mph /  11.3km/h 92% 0.00in /  0mm
04:11 69.4 °F /  20.8 °C 67.0 °F /  19.4 °C 29.95in /  1014.1hPa ESE 2.0mph /  3.2km/h 8.0mph /  12.9km/h 92% 0.00in /  0mm
04:16 69.4 °F /  20.8 °C 67.0 °F /  19.4 °C 29.95in /  1014.1hPa East 3.0mph /  4.8km/h 7.0mph /  11.3km/h 92% 0.00in /  0mm
04:21 69.4 °F /  20.8 °C 67.0 °F /  19.4 °C 29.95in /  1014.1hPa SE 6.0mph /  9.7km/h 9.0mph /  14.5km/h 92% 0.00in /  0mm
04:26 69.4 °F /  20.8 °C 67.0 °F /  19.4 °C 29.95in /  1014.1hPa ESE 4.0mph /  6.4km/h 7.0mph /  11.3km/h 92% 0.00in /  0mm
04:31 69.4 °F /  20.8 °C 67.0 °F /  19.4 °C 29.95in /  1014.1hPa ESE 7.0mph /  11.3km/h 7.0mph /  11.3km/h 92% 0.00in /  0mm
04:36 69.4 °F /  20.8 °C 67.0 °F /  19.4 °C 29.95in /  1014.1hPa ESE 3.0mph /  4.8km/h 7.0mph /  11.3km/h 92% 0.00in /  0mm
04:41 69.3 °F /  20.7 °C 66.9 °F /  19.4 °C 29.95in /  1014.1hPa SE 4.0mph /  6.4km/h 7.0mph /  11.3km/h 92% 0.00in /  0mm
04:46 69.4 °F /  20.8 °C 67.0 °F /  19.4 °C 29.95in /  1014.1hPa ESE 3.0mph /  4.8km/h 6.0mph /  9.7km/h 92% 0.00in /  0mm
04:51 69.3 °F /  20.7 °C 66.9 °F /  19.4 °C 29.95in /  1014.1hPa ESE 4.0mph /  6.4km/h 8.0mph /  12.9km/h 92% 0.00in /  0mm
04:57 69.3 °F /  20.7 °C 66.9 °F /  19.4 °C 29.95in /  1014.1hPa SE 5.0mph /  8km/h 7.0mph /  11.3km/h 92% 0.00in /  0mm
05:02 69.3 °F /  20.7 °C 66.9 °F /  19.4 °C 29.95in /  1014.1hPa SE 2.0mph /  3.2km/h 5.0mph /  8km/h 92% 0.00in /  0mm
05:07 69.2 °F /  20.7 °C 66.8 °F /  19.3 °C 29.95in /  1014.1hPa ESE 3.0mph /  4.8km/h 6.0mph /  9.7km/h 92% 0.35in /  8.89mm
05:12 69.2 °F /  20.7 °C 66.8 °F /  19.3 °C 29.95in /  1014.1hPa SE 2.0mph /  3.2km/h 5.0mph /  8km/h 92% 0.46in /  11.68mm
05:17 69.1 °F /  20.6 °C 66.7 °F /  19.3 °C 29.95in /  1014.1hPa ESE 5.0mph /  8km/h 5.0mph /  8km/h 92% 0.26in /  6.6mm
05:22 69.1 °F /  20.6 °C 66.7 °F /  19.3 °C 29.95in /  1014.1hPa ESE 2.0mph /  3.2km/h 4.0mph /  6.4km/h 92% 0.12in /  3.05mm
05:27 69.1 °F /  20.6 °C 66.7 °F /  19.3 °C 29.95in /  1014.1hPa Calm   3.0mph /  4.8km/h 92% 0.38in /  9.65mm
05:32 69.1 °F /  20.6 °C 66.7 °F /  19.3 °C 29.95in /  1014.1hPa East 4.0mph /  6.4km/h 5.0mph /  8km/h 92% 0.11in /  2.79mm
05:37 69.0 °F /  20.6 °C 66.6 °F /  19.2 °C 29.95in /  1014.1hPa SE 2.0mph /  3.2km/h 4.0mph /  6.4km/h 92% 0.11in /  2.79mm
05:42 69.1 °F /  20.6 °C 66.7 °F /  19.3 °C 29.95in /  1014.1hPa SE 3.0mph /  4.8km/h 4.0mph /  6.4km/h 92% 0.06in /  1.52mm
05:47 69.1 °F /  20.6 °C 66.7 °F /  19.3 °C 29.95in /  1014.1hPa East 2.0mph /  3.2km/h 6.0mph /  9.7km/h 92% 0.04in /  1.02mm
05:52 69.1 °F /  20.6 °C 66.7 °F /  19.3 °C 29.95in /  1014.1hPa East 4.0mph /  6.4km/h 4.0mph /  6.4km/h 92% 0.04in /  1.02mm
05:57 69.1 °F /  20.6 °C 66.7 °F /  19.3 °C 29.95in /  1014.1hPa East 2.0mph /  3.2km/h 4.0mph /  6.4km/h 92% 0.04in /  1.02mm
06:02 69.1 °F /  20.6 °C 66.7 °F /  19.3 °C 29.96in /  1014.4hPa ESE 3.0mph /  4.8km/h 4.0mph /  6.4km/h 92% 0.04in /  1.02mm
06:07 69.1 °F /  20.6 °C 66.7 °F /  19.3 °C 29.96in /  1014.4hPa SE 2.0mph /  3.2km/h 5.0mph /  8km/h 92% 0.00in /  0mm
06:12 69.1 °F /  20.6 °C 66.7 °F /  19.3 °C 29.96in /  1014.4hPa ENE 2.0mph /  3.2km/h 3.0mph /  4.8km/h 92% 0.00in /  0mm
06:17 69.0 °F /  20.6 °C 66.6 °F /  19.2 °C 29.96in /  1014.4hPa ESE 3.0mph /  4.8km/h 4.0mph /  6.4km/h 92% 0.00in /  0mm
06:22 69.0 °F /  20.6 °C 66.6 °F /  19.2 °C 29.96in /  1014.4hPa ESE 2.0mph /  3.2km/h 4.0mph /  6.4km/h 92% 0.00in /  0mm
06:27 69.0 °F /  20.6 °C 66.6 °F /  19.2 °C 29.96in /  1014.4hPa SE 2.0mph /  3.2km/h 3.0mph /  4.8km/h 92% 0.00in /  0mm
06:32 69.0 °F /  20.6 °C 66.6 °F /  19.2 °C 29.96in /  1014.4hPa East 1.0mph /  1.6km/h 2.0mph /  3.2km/h 92% 0.00in /  0mm
06:37 69.1 °F /  20.6 °C 66.7 °F /  19.3 °C 29.96in /  1014.4hPa East 2.0mph /  3.2km/h 3.0mph /  4.8km/h 92% 0.00in /  0mm
06:42 69.0 °F /  20.6 °C 66.6 °F /  19.2 °C 29.96in /  1014.4hPa ENE 1.0mph /  1.6km/h 4.0mph /  6.4km/h 92% 0.00in /  0mm
06:47 69.0 °F /  20.6 °C 66.6 °F /  19.2 °C 29.96in /  1014.4hPa East 2.0mph /  3.2km/h 4.0mph /  6.4km/h 92% 0.00in /  0mm
06:52 69.0 °F /  20.6 °C 66.6 °F /  19.2 °C 29.96in /  1014.4hPa East 1.0mph /  1.6km/h 4.0mph /  6.4km/h 92% 0.00in /  0mm
06:57 69.1 °F /  20.6 °C 66.7 °F /  19.3 °C 29.96in /  1014.4hPa East 3.0mph /  4.8km/h 3.0mph /  4.8km/h 92% 0.00in /  0mm
07:02 69.1 °F /  20.6 °C 66.7 °F /  19.3 °C 29.96in /  1014.4hPa SE 1.0mph /  1.6km/h 4.0mph /  6.4km/h 92% 0.00in /  0mm
07:07 69.1 °F /  20.6 °C 66.7 °F /  19.3 °C 29.96in /  1014.4hPa East 4.0mph /  6.4km/h 4.0mph /  6.4km/h 92% 0.00in /  0mm
07:12 69.0 °F /  20.6 °C 66.6 °F /  19.2 °C 29.96in /  1014.4hPa East 2.0mph /  3.2km/h 5.0mph /  8km/h 92% 0.00in /  0mm
07:17 69.0 °F /  20.6 °C 66.6 °F /  19.2 °C 29.96in /  1014.4hPa SE 3.0mph /  4.8km/h 4.0mph /  6.4km/h 92% 0.06in /  1.52mm
07:22 69.0 °F /  20.6 °C 66.6 °F /  19.2 °C 29.96in /  1014.4hPa SE 4.0mph /  6.4km/h 6.0mph /  9.7km/h 92% 0.06in /  1.52mm
07:27 69.1 °F /  20.6 °C 66.7 °F /  19.3 °C 29.96in /  1014.4hPa SE 4.0mph /  6.4km/h 4.0mph /  6.4km/h 92% 0.06in /  1.52mm
07:32 69.0 °F /  20.6 °C 66.6 °F /  19.2 °C 29.96in /  1014.4hPa ENE 2.0mph /  3.2km/h 5.0mph /  8km/h 92% 0.04in /  1.02mm
07:37 69.0 °F /  20.6 °C 66.6 °F /  19.2 °C 29.96in /  1014.4hPa ESE 1.0mph /  1.6km/h 5.0mph /  8km/h 92% 0.04in /  1.02mm
07:42 69.0 °F /  20.6 °C 66.6 °F /  19.2 °C 29.96in /  1014.4hPa ESE 6.0mph /  9.7km/h 6.0mph /  9.7km/h 92% 0.08in /  2.03mm
07:47 68.9 °F /  20.5 °C 66.5 °F /  19.2 °C 29.96in /  1014.4hPa ESE 3.0mph /  4.8km/h 5.0mph /  8km/h 92% 0.06in /  1.52mm
07:52 68.9 °F /  20.5 °C 66.5 °F /  19.2 °C 29.96in /  1014.4hPa East 3.0mph /  4.8km/h 5.0mph /  8km/h 92% 0.04in /  1.02mm
07:57 68.9 °F /  20.5 °C 66.5 °F /  19.2 °C 29.96in /  1014.4hPa East 4.0mph /  6.4km/h 6.0mph /  9.7km/h 92% 0.00in /  0mm
08:02 68.9 °F /  20.5 °C 66.5 °F /  19.2 °C 29.96in /  1014.4hPa SE 3.0mph /  4.8km/h 6.0mph /  9.7km/h 92% 0.00in /  0mm
08:07 68.8 °F /  20.4 °C 66.4 °F /  19.1 °C 29.97in /  1014.8hPa ESE 4.0mph /  6.4km/h 6.0mph /  9.7km/h 92% 0.00in /  0mm
08:12 68.8 °F /  20.4 °C 66.4 °F /  19.1 °C 29.96in /  1014.4hPa ESE 4.0mph /  6.4km/h 7.0mph /  11.3km/h 92% 0.04in /  1.02mm
08:17 68.8 °F /  20.4 °C 66.4 °F /  19.1 °C 29.97in /  1014.8hPa ENE 3.0mph /  4.8km/h 5.0mph /  8km/h 92% 0.09in /  2.29mm
08:22 68.8 °F /  20.4 °C 66.4 °F /  19.1 °C 29.97in /  1014.8hPa ESE 3.0mph /  4.8km/h 7.0mph /  11.3km/h 92% 0.15in /  3.81mm
08:27 68.8 °F /  20.4 °C 66.4 °F /  19.1 °C 29.97in /  1014.8hPa ESE 3.0mph /  4.8km/h 8.0mph /  12.9km/h 92% 0.18in /  4.57mm
08:32 68.8 °F /  20.4 °C 66.4 °F /  19.1 °C 29.97in /  1014.8hPa East 3.0mph /  4.8km/h 5.0mph /  8km/h 92% 0.17in /  4.32mm
08:37 68.9 °F /  20.5 °C 66.5 °F /  19.2 °C 29.97in /  1014.8hPa ESE 3.0mph /  4.8km/h 6.0mph /  9.7km/h 92% 0.23in /  5.84mm
08:42 68.9 °F /  20.5 °C 66.5 °F /  19.2 °C 29.97in /  1014.8hPa ENE 2.0mph /  3.2km/h 8.0mph /  12.9km/h 92% 0.31in /  7.87mm
08:47 68.9 °F /  20.5 °C 66.5 °F /  19.2 °C 29.97in /  1014.8hPa SE 2.0mph /  3.2km/h 6.0mph /  9.7km/h 92% 0.27in /  6.86mm
08:52 68.9 °F /  20.5 °C 66.5 °F /  19.2 °C 29.98in /  1015.1hPa East 3.0mph /  4.8km/h 6.0mph /  9.7km/h 92% 0.28in /  7.11mm
08:57 69.0 °F /  20.6 °C 66.6 °F /  19.2 °C 29.98in /  1015.1hPa East 4.0mph /  6.4km/h 5.0mph /  8km/h 92% 0.25in /  6.35mm
09:03 68.9 °F /  20.5 °C 66.5 °F /  19.2 °C 29.97in /  1014.8hPa SE 2.0mph /  3.2km/h 8.0mph /  12.9km/h 92% 0.19in /  4.83mm
09:08 68.9 °F /  20.5 °C 66.5 °F /  19.2 °C 29.97in /  1014.8hPa ESE 6.0mph /  9.7km/h 7.0mph /  11.3km/h 92% 0.28in /  7.11mm
09:13 69.0 °F /  20.6 °C 66.6 °F /  19.2 °C 29.97in /  1014.8hPa ESE 2.0mph /  3.2km/h 8.0mph /  12.9km/h 92% 0.28in /  7.11mm
09:18 69.0 °F /  20.6 °C 66.6 °F /  19.2 °C 29.97in /  1014.8hPa ESE 3.0mph /  4.8km/h 5.0mph /  8km/h 92% 0.36in /  9.14mm
09:23 69.0 °F /  20.6 °C 66.6 °F /  19.2 °C 29.97in /  1014.8hPa ESE 4.0mph /  6.4km/h 5.0mph /  8km/h 92% 0.38in /  9.65mm
09:28 69.0 °F /  20.6 °C 66.6 °F /  19.2 °C 29.97in /  1014.8hPa East 4.0mph /  6.4km/h 6.0mph /  9.7km/h 92% 0.19in /  4.83mm
09:33 69.0 °F /  20.6 °C 66.6 °F /  19.2 °C 29.97in /  1014.8hPa ESE 3.0mph /  4.8km/h 4.0mph /  6.4km/h 92% 0.19in /  4.83mm
09:38 69.1 °F /  20.6 °C 66.7 °F /  19.3 °C 29.98in /  1015.1hPa SE 4.0mph /  6.4km/h 7.0mph /  11.3km/h 92% 0.23in /  5.84mm
09:43 69.2 °F /  20.7 °C 66.8 °F /  19.3 °C 29.98in /  1015.1hPa ESE 4.0mph /  6.4km/h 5.0mph /  8km/h 92% 0.28in /  7.11mm
09:48 69.2 °F /  20.7 °C 66.8 °F /  19.3 °C 29.98in /  1015.1hPa ESE 1.0mph /  1.6km/h 5.0mph /  8km/h 92% 0.26in /  6.6mm
09:53 69.2 °F /  20.7 °C 66.8 °F /  19.3 °C 29.98in /  1015.1hPa ESE 4.0mph /  6.4km/h 4.0mph /  6.4km/h 92% 0.18in /  4.57mm
09:58 69.2 °F /  20.7 °C 66.8 °F /  19.3 °C 29.98in /  1015.1hPa ENE 2.0mph /  3.2km/h 5.0mph /  8km/h 92% 0.11in /  2.79mm
10:03 69.2 °F /  20.7 °C 66.8 °F /  19.3 °C 29.98in /  1015.1hPa East 3.0mph /  4.8km/h 5.0mph /  8km/h 92% 0.08in /  2.03mm
10:08 69.2 °F /  20.7 °C 66.8 °F /  19.3 °C 29.98in /  1015.1hPa East 4.0mph /  6.4km/h 6.0mph /  9.7km/h 92% 0.06in /  1.52mm
10:13 69.3 °F /  20.7 °C 66.9 °F /  19.4 °C 29.98in /  1015.1hPa SSE 3.0mph /  4.8km/h 4.0mph /  6.4km/h 92% 0.24in /  6.1mm
10:18 69.2 °F /  20.7 °C 66.8 °F /  19.3 °C 29.99in /  1015.5hPa ESE 2.0mph /  3.2km/h 5.0mph /  8km/h 92% 0.26in /  6.6mm
10:23 69.3 °F /  20.7 °C 66.9 °F /  19.4 °C 29.99in /  1015.5hPa East 4.0mph /  6.4km/h 4.0mph /  6.4km/h 92% 0.23in /  5.84mm
10:28 69.3 °F /  20.7 °C 66.9 °F /  19.4 °C 29.99in /  1015.5hPa SE 2.0mph /  3.2km/h 3.0mph /  4.8km/h 92% 0.14in /  3.56mm
10:33 69.3 °F /  20.7 °C 66.9 °F /  19.4 °C 29.99in /  1015.5hPa ESE 4.0mph /  6.4km/h 5.0mph /  8km/h 92% 0.18in /  4.57mm
10:38 69.4 °F /  20.8 °C 67.0 °F /  19.4 °C 29.99in /  1015.5hPa ESE 6.0mph /  9.7km/h 8.0mph /  12.9km/h 92% 0.32in /  8.13mm
10:43 69.4 °F /  20.8 °C 67.0 °F /  19.4 °C 29.99in /  1015.5hPa ENE 4.0mph /  6.4km/h 6.0mph /  9.7km/h 92% 0.22in /  5.59mm
10:48 69.5 °F /  20.8 °C 67.1 °F /  19.5 °C 29.99in /  1015.5hPa ESE 6.0mph /  9.7km/h 6.0mph /  9.7km/h 92% 0.24in /  6.1mm
10:53 69.5 °F /  20.8 °C 67.1 °F /  19.5 °C 29.99in /  1015.5hPa ESE 3.0mph /  4.8km/h 5.0mph /  8km/h 92% 0.21in /  5.33mm
10:59 69.6 °F /  20.9 °C 67.2 °F /  19.6 °C 29.99in /  1015.5hPa ENE 3.0mph /  4.8km/h 4.0mph /  6.4km/h 92% 0.26in /  6.6mm
11:04 69.6 °F /  20.9 °C 67.2 °F /  19.6 °C 29.99in /  1015.5hPa ESE 1.0mph /  1.6km/h 4.0mph /  6.4km/h 92% 0.25in /  6.35mm
11:09 69.7 °F /  20.9 °C 67.3 °F /  19.6 °C 29.99in /  1015.5hPa East 3.0mph /  4.8km/h 5.0mph /  8km/h 92% 0.32in /  8.13mm
11:14 69.8 °F /  21 °C 67.4 °F /  19.7 °C 29.99in /  1015.5hPa East 3.0mph /  4.8km/h 5.0mph /  8km/h 92% 0.19in /  4.83mm
11:19 69.8 °F /  21 °C 67.4 °F /  19.7 °C 29.99in /  1015.5hPa ESE 2.0mph /  3.2km/h 4.0mph /  6.4km/h 92% 0.18in /  4.57mm
11:24 69.9 °F /  21.1 °C 67.5 °F /  19.7 °C 29.99in /  1015.5hPa SE 3.0mph /  4.8km/h 5.0mph /  8km/h 92% 0.14in /  3.56mm
11:29 69.9 °F /  21.1 °C 67.5 °F /  19.7 °C 29.99in /  1015.5hPa ESE 5.0mph /  8km/h 7.0mph /  11.3km/h 92% 0.11in /  2.79mm
11:34 70.0 °F /  21.1 °C 67.6 °F /  19.8 °C 29.99in /  1015.5hPa SE 6.0mph /  9.7km/h 8.0mph /  12.9km/h 92% 0.17in /  4.32mm
11:39 70.1 °F /  21.2 °C 67.7 °F /  19.8 °C 30.00in /  1015.8hPa ESE 5.0mph /  8km/h 7.0mph /  11.3km/h 92% 0.12in /  3.05mm
11:44 70.1 °F /  21.2 °C 67.7 °F /  19.8 °C 30.00in /  1015.8hPa ESE 3.0mph /  4.8km/h 5.0mph /  8km/h 92% 0.11in /  2.79mm
11:49 70.1 °F /  21.2 °C 67.7 °F /  19.8 °C 30.00in /  1015.8hPa ESE 3.0mph /  4.8km/h 6.0mph /  9.7km/h 92% 0.15in /  3.81mm
11:54 70.2 °F /  21.2 °C 67.8 °F /  19.9 °C 30.01in /  1016.1hPa SE 4.0mph /  6.4km/h 4.0mph /  6.4km/h 92% 0.18in /  4.57mm
11:59 70.2 °F /  21.2 °C 67.8 °F /  19.9 °C 30.00in /  1015.8hPa ESE 2.0mph /  3.2km/h 4.0mph /  6.4km/h 92% 0.18in /  4.57mm
12:05 70.3 °F /  21.3 °C 67.9 °F /  19.9 °C 30.00in /  1015.8hPa ESE 2.0mph /  3.2km/h 4.0mph /  6.4km/h 92% 0.18in /  4.57mm
12:10 70.4 °F /  21.3 °C 68.0 °F /  20 °C 30.00in /  1015.8hPa ESE 5.0mph /  8km/h 10.0mph /  16.1km/h 92% 0.15in /  3.81mm
12:15 70.5 °F /  21.4 °C 68.1 °F /  20.1 °C 30.00in /  1015.8hPa SE 5.0mph /  8km/h 9.0mph /  14.5km/h 92% 0.10in /  2.54mm
12:20 70.7 °F /  21.5 °C 68.3 °F /  20.2 °C 30.00in /  1015.8hPa East 7.0mph /  11.3km/h 7.0mph /  11.3km/h 92% 0.06in /  1.52mm
12:25 70.8 °F /  21.6 °C 68.4 °F /  20.2 °C 30.00in /  1015.8hPa ESE 3.0mph /  4.8km/h 6.0mph /  9.7km/h 92% 0.04in /  1.02mm
12:30 70.9 °F /  21.6 °C 68.5 °F /  20.3 °C 30.00in /  1015.8hPa SE 3.0mph /  4.8km/h 4.0mph /  6.4km/h 92% 0.00in /  0mm
12:35 70.9 °F /  21.6 °C 68.5 °F /  20.3 °C 30.00in /  1015.8hPa SE 4.0mph /  6.4km/h 6.0mph /  9.7km/h 92% 0.27in /  6.86mm
12:40 70.7 °F /  21.5 °C 68.3 °F /  20.2 °C 30.00in /  1015.8hPa ESE 5.0mph /  8km/h 5.0mph /  8km/h 92% 0.16in /  4.06mm
12:45 70.8 °F /  21.6 °C 68.4 °F /  20.2 °C 30.00in /  1015.8hPa SE 5.0mph /  8km/h 6.0mph /  9.7km/h 92% 0.07in /  1.78mm
12:50 70.7 °F /  21.5 °C 68.3 °F /  20.2 °C 30.00in /  1015.8hPa SE 7.0mph /  11.3km/h 9.0mph /  14.5km/h 92% 0.05in /  1.27mm
12:55 70.8 °F /  21.6 °C 68.4 °F /  20.2 °C 30.00in /  1015.8hPa SE 6.0mph /  9.7km/h 8.0mph /  12.9km/h 92% 0.05in /  1.27mm
13:01 71.0 °F /  21.7 °C 68.6 °F /  20.3 °C 30.00in /  1015.8hPa SE 5.0mph /  8km/h 7.0mph /  11.3km/h 92% 0.05in /  1.27mm
13:06 71.1 °F /  21.7 °C 68.7 °F /  20.4 °C 30.00in /  1015.8hPa SE 6.0mph /  9.7km/h 7.0mph /  11.3km/h 92% 0.04in /  1.02mm
13:11 71.2 °F /  21.8 °C 68.8 °F /  20.4 °C 30.00in /  1015.8hPa SE 7.0mph /  11.3km/h 9.0mph /  14.5km/h 92% 0.00in /  0mm
13:16 71.4 °F /  21.9 °C 69.0 °F /  20.6 °C 30.00in /  1015.8hPa ESE 8.0mph /  12.9km/h 9.0mph /  14.5km/h 92% 0.00in /  0mm
13:21 71.3 °F /  21.8 °C 68.9 °F /  20.5 °C 30.00in /  1015.8hPa SE 9.0mph /  14.5km/h 10.0mph /  16.1km/h 92% 0.00in /  0mm
13:26 71.3 °F /  21.8 °C 68.9 °F /  20.5 °C 30.00in /  1015.8hPa SE 6.0mph /  9.7km/h 8.0mph /  12.9km/h 92% 0.00in /  0mm
13:31 71.3 °F /  21.8 °C 68.9 °F /  20.5 °C 30.00in /  1015.8hPa South 3.0mph /  4.8km/h 6.0mph /  9.7km/h 92% 0.00in /  0mm
13:36 71.5 °F /  21.9 °C 69.1 °F /  20.6 °C 29.99in /  1015.5hPa SSE 3.0mph /  4.8km/h 6.0mph /  9.7km/h 92% 0.00in /  0mm
13:41 71.7 °F /  22.1 °C 69.3 °F /  20.7 °C 29.99in /  1015.5hPa SE 6.0mph /  9.7km/h 8.0mph /  12.9km/h 92% 0.00in /  0mm
13:46 71.8 °F /  22.1 °C 69.3 °F /  20.7 °C 29.99in /  1015.5hPa South 6.0mph /  9.7km/h 9.0mph /  14.5km/h 92% 0.00in /  0mm
13:51 72.0 °F /  22.2 °C 69.6 °F /  20.9 °C 29.99in /  1015.5hPa SE 6.0mph /  9.7km/h 8.0mph /  12.9km/h 92% 0.00in /  0mm
13:56 72.4 °F /  22.4 °C 69.9 °F /  21.1 °C 29.99in /  1015.5hPa SE 6.0mph /  9.7km/h 6.0mph /  9.7km/h 92% 0.00in /  0mm
14:01 72.3 °F /  22.4 °C 69.8 °F /  21 °C 29.99in /  1015.5hPa SSE 3.0mph /  4.8km/h 8.0mph /  12.9km/h 92% 0.00in /  0mm
14:06 72.2 °F /  22.3 °C 69.8 °F /  21 °C 29.99in /  1015.5hPa SSE 4.0mph /  6.4km/h 8.0mph /  12.9km/h 92% 0.00in /  0mm
14:11 72.0 °F /  22.2 °C 69.2 °F /  20.7 °C 29.99in /  1015.5hPa SE 8.0mph /  12.9km/h 10.0mph /  16.1km/h 91% 0.00in /  0mm
14:16 71.7 °F /  22.1 °C 68.9 °F /  20.5 °C 29.99in /  1015.5hPa SSE 4.0mph /  6.4km/h 8.0mph /  12.9km/h 91% 0.00in /  0mm
14:21 71.7 °F /  22.1 °C 69.3 °F /  20.7 °C 29.98in /  1015.1hPa SSE 5.0mph /  8km/h 6.0mph /  9.7km/h 92% 0.00in /  0mm
14:26 71.6 °F /  22 °C 69.2 °F /  20.7 °C 29.98in /  1015.1hPa SE 4.0mph /  6.4km/h 8.0mph /  12.9km/h 92% 0.00in /  0mm
14:31 71.7 °F /  22.1 °C 69.3 °F /  20.7 °C 29.98in /  1015.1hPa SE 4.0mph /  6.4km/h 5.0mph /  8km/h 92% 0.00in /  0mm
14:36 71.6 °F /  22 °C 69.2 °F /  20.7 °C 29.98in /  1015.1hPa SSW 3.0mph /  4.8km/h 5.0mph /  8km/h 92% 0.00in /  0mm
14:41 71.5 °F /  21.9 °C 69.1 °F /  20.6 °C 29.98in /  1015.1hPa ESE 3.0mph /  4.8km/h 5.0mph /  8km/h 92% 0.00in /  0mm
14:46 71.3 °F /  21.8 °C 68.9 °F /  20.5 °C 29.98in /  1015.1hPa SE 4.0mph /  6.4km/h 7.0mph /  11.3km/h 92% 0.00in /  0mm
14:51 71.2 °F /  21.8 °C 68.8 °F /  20.4 °C 29.98in /  1015.1hPa SE 3.0mph /  4.8km/h 7.0mph /  11.3km/h 92% 0.00in /  0mm
14:56 71.1 °F /  21.7 °C 68.7 °F /  20.4 °C 29.98in /  1015.1hPa SE 5.0mph /  8km/h 7.0mph /  11.3km/h 92% 0.00in /  0mm
15:01 71.2 °F /  21.8 °C 68.8 °F /  20.4 °C 29.97in /  1014.8hPa SE 5.0mph /  8km/h 5.0mph /  8km/h 92% 0.00in /  0mm
15:06 71.1 °F /  21.7 °C 68.7 °F /  20.4 °C 29.97in /  1014.8hPa SE 11.0mph /  17.7km/h 11.0mph /  17.7km/h 92% 0.00in /  0mm
15:11 71.1 °F /  21.7 °C 68.7 °F /  20.4 °C 29.98in /  1015.1hPa ESE 5.0mph /  8km/h 10.0mph /  16.1km/h 92% 0.00in /  0mm
15:16 71.3 °F /  21.8 °C 68.9 °F /  20.5 °C 29.97in /  1014.8hPa SE 4.0mph /  6.4km/h 6.0mph /  9.7km/h 92% 0.00in /  0mm
15:24 71.4 °F /  21.9 °C 69.0 °F /  20.6 °C 29.98in /  1015.1hPa SE 7.0mph /  11.3km/h 7.0mph /  11.3km/h 92% 0.00in /  0mm
15:29 71.5 °F /  21.9 °C 69.1 °F /  20.6 °C 29.97in /  1014.8hPa SSE 6.0mph /  9.7km/h 7.0mph /  11.3km/h 92% 0.00in /  0mm
15:34 71.6 °F /  22 °C 69.2 °F /  20.7 °C 29.97in /  1014.8hPa SSE 5.0mph /  8km/h 8.0mph /  12.9km/h 92% 0.00in /  0mm
15:40 71.8 °F /  22.1 °C 69.3 °F /  20.7 °C 29.97in /  1014.8hPa ESE 6.0mph /  9.7km/h 7.0mph /  11.3km/h 92% 0.00in /  0mm
15:45 71.7 °F /  22.1 °C 69.3 °F /  20.7 °C 29.97in /  1014.8hPa SE 2.0mph /  3.2km/h 5.0mph /  8km/h 92% 0.00in /  0mm
15:50 71.6 °F /  22 °C 69.2 °F /  20.7 °C 29.97in /  1014.8hPa East 4.0mph /  6.4km/h 6.0mph /  9.7km/h 92% 0.00in /  0mm
15:55 71.2 °F /  21.8 °C 68.8 °F /  20.4 °C 29.97in /  1014.8hPa ESE 5.0mph /  8km/h 8.0mph /  12.9km/h 92% 0.00in /  0mm
16:00 70.9 °F /  21.6 °C 68.5 °F /  20.3 °C 29.97in /  1014.8hPa ESE 9.0mph /  14.5km/h 9.0mph /  14.5km/h 92% 0.00in /  0mm
16:05 70.8 °F /  21.6 °C 68.4 °F /  20.2 °C 29.97in /  1014.8hPa SE 5.0mph /  8km/h 8.0mph /  12.9km/h 92% 0.00in /  0mm
16:10 70.8 °F /  21.6 °C 68.4 °F /  20.2 °C 29.97in /  1014.8hPa SE 5.0mph /  8km/h 5.0mph /  8km/h 92% 0.00in /  0mm
16:15 70.7 °F /  21.5 °C 68.3 °F /  20.2 °C 29.97in /  1014.8hPa SE 3.0mph /  4.8km/h 5.0mph /  8km/h 92% 0.00in /  0mm
16:20 70.8 °F /  21.6 °C 68.4 °F /  20.2 °C 29.97in /  1014.8hPa SE 4.0mph /  6.4km/h 6.0mph /  9.7km/h 92% 0.00in /  0mm
16:26 71.0 °F /  21.7 °C 68.6 °F /  20.3 °C 29.97in /  1014.8hPa ESE 5.0mph /  8km/h 6.0mph /  9.7km/h 92% 0.00in /  0mm
16:31 71.3 °F /  21.8 °C 68.9 °F /  20.5 °C 29.97in /  1014.8hPa ESE 4.0mph /  6.4km/h 4.0mph /  6.4km/h 92% 0.00in /  0mm
16:36 71.5 °F /  21.9 °C 69.1 °F /  20.6 °C 29.96in /  1014.4hPa SE 3.0mph /  4.8km/h 5.0mph /  8km/h 92% 0.00in /  0mm
16:41 71.6 °F /  22 °C 69.2 °F /  20.7 °C 29.96in /  1014.4hPa ESE 4.0mph /  6.4km/h 6.0mph /  9.7km/h 92% 0.00in /  0mm
16:46 71.7 °F /  22.1 °C 69.3 °F /  20.7 °C 29.96in /  1014.4hPa ESE 3.0mph /  4.8km/h 5.0mph /  8km/h 92% 0.00in /  0mm
16:51 71.7 °F /  22.1 °C 69.3 °F /  20.7 °C 29.96in /  1014.4hPa SE 2.0mph /  3.2km/h 5.0mph /  8km/h 92% 0.00in /  0mm
16:56 72.0 °F /  22.2 °C 69.6 °F /  20.9 °C 29.96in /  1014.4hPa SE 2.0mph /  3.2km/h 4.0mph /  6.4km/h 92% 0.00in /  0mm
17:01 72.1 °F /  22.3 °C 69.7 °F /  20.9 °C 29.96in /  1014.4hPa SSE 4.0mph /  6.4km/h 4.0mph /  6.4km/h 92% 0.00in /  0mm
17:06 72.4 °F /  22.4 °C 69.9 °F /  21.1 °C 29.96in /  1014.4hPa ESE 1.0mph /  1.6km/h 3.0mph /  4.8km/h 92% 0.00in /  0mm
17:11 72.6 °F /  22.6 °C 70.2 °F /  21.2 °C 29.96in /  1014.4hPa SE 2.0mph /  3.2km/h 4.0mph /  6.4km/h 92% 0.00in /  0mm
17:16 72.6 °F /  22.6 °C 70.2 °F /  21.2 °C 29.96in /  1014.4hPa SE 4.0mph /  6.4km/h 4.0mph /  6.4km/h 92% 0.00in /  0mm
17:22 72.8 °F /  22.7 °C 70.3 °F /  21.3 °C 29.96in /  1014.4hPa ESE 4.0mph /  6.4km/h 4.0mph /  6.4km/h 92% 0.00in /  0mm
17:27 72.8 °F /  22.7 °C 70.0 °F /  21.1 °C 29.96in /  1014.4hPa SE 6.0mph /  9.7km/h 6.0mph /  9.7km/h 91% 0.00in /  0mm
17:32 72.7 °F /  22.6 °C 70.2 °F /  21.2 °C 29.95in /  1014.1hPa SE 6.0mph /  9.7km/h 7.0mph /  11.3km/h 92% 0.00in /  0mm
17:37 72.8 °F /  22.7 °C 70.3 °F /  21.3 °C 29.95in /  1014.1hPa ESE 2.0mph /  3.2km/h 6.0mph /  9.7km/h 92% 0.00in /  0mm
17:42 72.9 °F /  22.7 °C 70.4 °F /  21.3 °C 29.95in /  1014.1hPa East 5.0mph /  8km/h 5.0mph /  8km/h 92% 0.00in /  0mm
17:47 72.9 °F /  22.7 °C 70.4 °F /  21.3 °C 29.95in /  1014.1hPa ESE 4.0mph /  6.4km/h 6.0mph /  9.7km/h 92% 0.00in /  0mm
17:52 72.9 °F /  22.7 °C 70.4 °F /  21.3 °C 29.95in /  1014.1hPa East 4.0mph /  6.4km/h 7.0mph /  11.3km/h 92% 0.00in /  0mm
17:57 73.2 °F /  22.9 °C 70.7 °F /  21.5 °C 29.95in /  1014.1hPa SE 3.0mph /  4.8km/h 5.0mph /  8km/h 92% 0.00in /  0mm
18:02 73.1 °F /  22.8 °C 70.6 °F /  21.4 °C 29.95in /  1014.1hPa ESE 3.0mph /  4.8km/h 6.0mph /  9.7km/h 92% 0.00in /  0mm
18:07 73.0 °F /  22.8 °C 70.5 °F /  21.4 °C 29.95in /  1014.1hPa ESE 3.0mph /  4.8km/h 6.0mph /  9.7km/h 92% 0.00in /  0mm
18:12 73.1 °F /  22.8 °C 70.6 °F /  21.4 °C 29.95in /  1014.1hPa East 3.0mph /  4.8km/h 5.0mph /  8km/h 92% 0.00in /  0mm
18:18 73.6 °F /  23.1 °C 71.1 °F /  21.7 °C 29.95in /  1014.1hPa SE 4.0mph /  6.4km/h 5.0mph /  8km/h 92% 0.00in /  0mm
18:23 73.6 °F /  23.1 °C 70.8 °F /  21.6 °C 29.95in /  1014.1hPa ESE 5.0mph /  8km/h 7.0mph /  11.3km/h 91% 0.00in /  0mm
18:28 73.7 °F /  23.2 °C 70.9 °F /  21.6 °C 29.95in /  1014.1hPa ENE 4.0mph /  6.4km/h 6.0mph /  9.7km/h 91% 0.00in /  0mm
18:33 73.8 °F /  23.2 °C 71.0 °F /  21.7 °C 29.95in /  1014.1hPa ESE 3.0mph /  4.8km/h 4.0mph /  6.4km/h 91% 0.00in /  0mm
18:38 73.7 °F /  23.2 °C 70.6 °F /  21.4 °C 29.94in /  1013.8hPa ESE 4.0mph /  6.4km/h 6.0mph /  9.7km/h 90% 0.00in /  0mm
18:43 73.8 °F /  23.2 °C 71.0 °F /  21.7 °C 29.95in /  1014.1hPa SE 4.0mph /  6.4km/h 5.0mph /  8km/h 91% 0.00in /  0mm
18:48 73.9 °F /  23.3 °C 70.8 °F /  21.6 °C 29.94in /  1013.8hPa ESE 4.0mph /  6.4km/h 5.0mph /  8km/h 90% 0.00in /  0mm
18:53 73.8 °F /  23.2 °C 70.7 °F /  21.5 °C 29.95in /  1014.1hPa SE 4.0mph /  6.4km/h 7.0mph /  11.3km/h 90% 0.00in /  0mm
18:58 73.9 °F /  23.3 °C 70.8 °F /  21.6 °C 29.95in /  1014.1hPa ESE 3.0mph /  4.8km/h 6.0mph /  9.7km/h 90% 0.00in /  0mm
19:03 73.9 °F /  23.3 °C 70.8 °F /  21.6 °C 29.95in /  1014.1hPa ESE 1.0mph /  1.6km/h 4.0mph /  6.4km/h 90% 0.00in /  0mm
19:08 73.8 °F /  23.2 °C 71.0 °F /  21.7 °C 29.95in /  1014.1hPa ESE 3.0mph /  4.8km/h 6.0mph /  9.7km/h 91% 0.00in /  0mm
19:13 73.4 °F /  23 °C 70.6 °F /  21.4 °C 29.95in /  1014.1hPa SE 4.0mph /  6.4km/h 4.0mph /  6.4km/h 91% 0.00in /  0mm
19:18 73.1 °F /  22.8 °C 70.3 °F /  21.3 °C 29.95in /  1014.1hPa East 2.0mph /  3.2km/h 4.0mph /  6.4km/h 91% 0.00in /  0mm
19:23 72.8 °F /  22.7 °C 70.3 °F /  21.3 °C 29.95in /  1014.1hPa East 4.0mph /  6.4km/h 4.0mph /  6.4km/h 92% 0.00in /  0mm
19:28 72.7 °F /  22.6 °C 70.2 °F /  21.2 °C 29.96in /  1014.4hPa SE 4.0mph /  6.4km/h 4.0mph /  6.4km/h 92% 0.00in /  0mm
19:33 72.5 °F /  22.5 °C 70.1 °F /  21.2 °C 29.96in /  1014.4hPa ESE 2.0mph /  3.2km/h 4.0mph /  6.4km/h 92% 0.00in /  0mm
19:38 72.4 °F /  22.4 °C 69.9 °F /  21.1 °C 29.96in /  1014.4hPa ENE 4.0mph /  6.4km/h 4.0mph /  6.4km/h 92% 0.00in /  0mm
19:43 72.5 °F /  22.5 °C 70.1 °F /  21.2 °C 29.96in /  1014.4hPa ENE 2.0mph /  3.2km/h 3.0mph /  4.8km/h 92% 0.00in /  0mm
19:48 72.4 °F /  22.4 °C 69.9 °F /  21.1 °C 29.96in /  1014.4hPa East 3.0mph /  4.8km/h 3.0mph /  4.8km/h 92% 0.00in /  0mm
19:53 72.4 °F /  22.4 °C 69.9 °F /  21.1 °C 29.96in /  1014.4hPa ENE 3.0mph /  4.8km/h 4.0mph /  6.4km/h 92% 0.00in /  0mm
19:58 72.4 °F /  22.4 °C 69.9 °F /  21.1 °C 29.96in /  1014.4hPa ENE 2.0mph /  3.2km/h 4.0mph /  6.4km/h 92% 0.00in /  0mm
20:03 72.4 °F /  22.4 °C 69.9 °F /  21.1 °C 29.97in /  1014.8hPa ENE 2.0mph /  3.2km/h 4.0mph /  6.4km/h 92% 0.00in /  0mm
20:08 72.4 °F /  22.4 °C 69.9 °F /  21.1 °C 29.97in /  1014.8hPa East 5.0mph /  8km/h 5.0mph /  8km/h 92% 0.00in /  0mm
20:13 72.4 °F /  22.4 °C 69.9 °F /  21.1 °C 29.97in /  1014.8hPa ESE 3.0mph /  4.8km/h 4.0mph /  6.4km/h 92% 0.00in /  0mm
20:18 72.4 °F /  22.4 °C 69.9 °F /  21.1 °C 29.97in /  1014.8hPa East 2.0mph /  3.2km/h 4.0mph /  6.4km/h 92% 0.00in /  0mm
20:23 72.3 °F /  22.4 °C 69.8 °F /  21 °C 29.97in /  1014.8hPa ENE 2.0mph /  3.2km/h 3.0mph /  4.8km/h 92% 0.00in /  0mm
20:28 72.3 °F /  22.4 °C 69.8 °F /  21 °C 29.98in /  1015.1hPa ESE 2.0mph /  3.2km/h 5.0mph /  8km/h 92% 0.00in /  0mm
20:34 72.1 °F /  22.3 °C 69.7 °F /  20.9 °C 29.97in /  1014.8hPa ESE 1.0mph /  1.6km/h 4.0mph /  6.4km/h 92% 0.00in /  0mm
20:39 72.0 °F /  22.2 °C 69.6 °F /  20.9 °C 29.98in /  1015.1hPa ESE 2.0mph /  3.2km/h 3.0mph /  4.8km/h 92% 0.00in /  0mm
20:44 71.9 °F /  22.2 °C 69.4 °F /  20.8 °C 29.97in /  1014.8hPa East 2.0mph /  3.2km/h 2.0mph /  3.2km/h 92% 0.00in /  0mm
20:49 71.8 °F /  22.1 °C 69.3 °F /  20.7 °C 29.97in /  1014.8hPa East 1.0mph /  1.6km/h 4.0mph /  6.4km/h 92% 0.00in /  0mm
20:54 71.8 °F /  22.1 °C 69.3 °F /  20.7 °C 29.97in /  1014.8hPa East 1.0mph /  1.6km/h 2.0mph /  3.2km/h 92% 0.00in /  0mm
20:59 71.8 °F /  22.1 °C 69.3 °F /  20.7 °C 29.97in /  1014.8hPa Calm   1.0mph /  1.6km/h 92% 0.00in /  0mm
21:04 71.8 °F /  22.1 °C 69.3 °F /  20.7 °C 29.97in /  1014.8hPa Calm   3.0mph /  4.8km/h 92% 0.00in /  0mm
21:09 71.8 °F /  22.1 °C 69.3 °F /  20.7 °C 29.97in /  1014.8hPa ESE 1.0mph /  1.6km/h 2.0mph /  3.2km/h 92% 0.00in /  0mm
21:14 71.7 °F /  22.1 °C 69.3 °F /  20.7 °C 29.97in /  1014.8hPa Calm   3.0mph /  4.8km/h 92% 0.00in /  0mm
21:19 71.6 °F /  22 °C 69.2 °F /  20.7 °C 29.97in /  1014.8hPa ESE 1.0mph /  1.6km/h 2.0mph /  3.2km/h 92% 0.00in /  0mm
21:24 71.6 °F /  22 °C 69.2 °F /  20.7 °C 29.97in /  1014.8hPa East 2.0mph /  3.2km/h 2.0mph /  3.2km/h 92% 0.00in /  0mm
21:29 71.5 °F /  21.9 °C 69.1 °F /  20.6 °C 29.97in /  1014.8hPa East 2.0mph /  3.2km/h 3.0mph /  4.8km/h 92% 0.00in /  0mm
21:34 71.5 °F /  21.9 °C 69.1 °F /  20.6 °C 29.97in /  1014.8hPa ENE 2.0mph /  3.2km/h 2.0mph /  3.2km/h 92% 0.00in /  0mm
21:39 71.5 °F /  21.9 °C 69.1 °F /  20.6 °C 29.97in /  1014.8hPa Calm   2.0mph /  3.2km/h 92% 0.00in /  0mm
21:44 71.5 °F /  21.9 °C 69.1 °F /  20.6 °C 29.97in /  1014.8hPa Calm   1.0mph /  1.6km/h 92% 0.00in /  0mm
21:49 71.5 °F /  21.9 °C 69.1 °F /  20.6 °C 29.97in /  1014.8hPa Calm   1.0mph /  1.6km/h 92% 0.00in /  0mm
21:54 71.4 °F /  21.9 °C 69.0 °F /  20.6 °C 29.97in /  1014.8hPa SE 1.0mph /  1.6km/h 2.0mph /  3.2km/h 92% 0.00in /  0mm
21:59 71.4 °F /  21.9 °C 69.0 °F /  20.6 °C 29.97in /  1014.8hPa ESE 2.0mph /  3.2km/h 3.0mph /  4.8km/h 92% 0.00in /  0mm
22:04 71.4 °F /  21.9 °C 69.0 °F /  20.6 °C 29.97in /  1014.8hPa ESE 2.0mph /  3.2km/h 2.0mph /  3.2km/h 92% 0.00in /  0mm
22:09 71.4 °F /  21.9 °C 69.0 °F /  20.6 °C 29.98in /  1015.1hPa ESE 1.0mph /  1.6km/h 2.0mph /  3.2km/h 92% 0.00in /  0mm
22:14 71.4 °F /  21.9 °C 69.0 °F /  20.6 °C 29.98in /  1015.1hPa East 2.0mph /  3.2km/h 3.0mph /  4.8km/h 92% 0.00in /  0mm
22:19 71.3 °F /  21.8 °C 68.9 °F /  20.5 °C 29.98in /  1015.1hPa ESE 1.0mph /  1.6km/h 2.0mph /  3.2km/h 92% 0.00in /  0mm
22:24 71.4 °F /  21.9 °C 69.0 °F /  20.6 °C 29.98in /  1015.1hPa Calm   2.0mph /  3.2km/h 92% 0.00in /  0mm
22:29 71.3 °F /  21.8 °C 68.9 °F /  20.5 °C 29.98in /  1015.1hPa ESE 1.0mph /  1.6km/h 1.0mph /  1.6km/h 92% 0.00in /  0mm
22:34 71.3 °F /  21.8 °C 68.9 °F /  20.5 °C 29.98in /  1015.1hPa ESE 2.0mph /  3.2km/h 2.0mph /  3.2km/h 92% 0.00in /  0mm
22:39 71.3 °F /  21.8 °C 68.9 °F /  20.5 °C 29.98in /  1015.1hPa ESE 2.0mph /  3.2km/h 2.0mph /  3.2km/h 92% 0.00in /  0mm
22:44 71.3 °F /  21.8 °C 68.9 °F /  20.5 °C 29.98in /  1015.1hPa ESE 2.0mph /  3.2km/h 3.0mph /  4.8km/h 92% 0.00in /  0mm
22:49 71.2 °F /  21.8 °C 68.8 °F /  20.4 °C 29.98in /  1015.1hPa SE 2.0mph /  3.2km/h 4.0mph /  6.4km/h 92% 0.00in /  0mm
22:54 71.2 °F /  21.8 °C 68.8 °F /  20.4 °C 29.98in /  1015.1hPa ESE 1.0mph /  1.6km/h 3.0mph /  4.8km/h 92% 0.00in /  0mm
23:00 71.2 °F /  21.8 °C 68.8 °F /  20.4 °C 29.98in /  1015.1hPa SE 1.0mph /  1.6km/h 2.0mph /  3.2km/h 92% 0.00in /  0mm
23:05 71.2 °F /  21.8 °C 68.8 °F /  20.4 °C 29.98in /  1015.1hPa Calm   1.0mph /  1.6km/h 92% 0.00in /  0mm
23:10 71.2 °F /  21.8 °C 68.8 °F /  20.4 °C 29.98in /  1015.1hPa East 1.0mph /  1.6km/h 2.0mph /  3.2km/h 92% 0.00in /  0mm
23:15 71.2 °F /  21.8 °C 68.8 °F /  20.4 °C 29.98in /  1015.1hPa Calm   1.0mph /  1.6km/h 92% 0.00in /  0mm
23:20 71.2 °F /  21.8 °C 68.8 °F /  20.4 °C 29.98in /  1015.1hPa East 1.0mph /  1.6km/h 2.0mph /  3.2km/h 92% 0.00in /  0mm
23:25 71.2 °F /  21.8 °C 68.8 °F /  20.4 °C 29.98in /  1015.1hPa ESE 2.0mph /  3.2km/h 3.0mph /  4.8km/h 92% 0.00in /  0mm
23:30 71.2 °F /  21.8 °C 68.8 °F /  20.4 °C 29.98in /  1015.1hPa ESE 2.0mph /  3.2km/h 2.0mph /  3.2km/h 92% 0.00in /  0mm
23:35 71.3 °F /  21.8 °C 68.9 °F /  20.5 °C 29.98in /  1015.1hPa ESE 3.0mph /  4.8km/h 3.0mph /  4.8km/h 92% 0.00in /  0mm
23:40 71.3 °F /  21.8 °C 68.9 °F /  20.5 °C 29.99in /  1015.5hPa ESE 2.0mph /  3.2km/h 3.0mph /  4.8km/h 92% 0.00in /  0mm
23:45 71.3 °F /  21.8 °C 68.9 °F /  20.5 °C 29.98in /  1015.1hPa ESE 3.0mph /  4.8km/h 4.0mph /  6.4km/h 92% 0.00in /  0mm
23:50 71.3 °F /  21.8 °C 68.9 °F /  20.5 °C 29.98in /  1015.1hPa ESE 5.0mph /  8km/h 6.0mph /  9.7km/h 92% 0.00in /  0mm
23:55 71.3 °F /  21.8 °C 68.9 °F /  20.5 °C 29.99in /  1015.5hPa ESE 3.0mph /  4.8km/h 6.0mph /  9.7km/h 92% 0.00in /  0mm
Compliments of Weather Underground